Latest Weather Observations for Dartmoor

IDV60801

Issued at 12:05 pm EST Monday 21 April 2014 (issued every 30 minutes, with the page automatically refreshed every 10 minutes)

About weather observations | Map of weather stations | Latest weather observations for VIC | Other Formats
Station Details ID: 090194 Name: DARTMOOR Lat: -37.92 Lon: 141.26 Height: 51.0 m
Data from the previous 72 hours. | See also: Recent months at Dartmoor
Date/Time
EST
Temp
°C
App
Temp
°C
Dew
Point
Rel
Hum
%
Delta-T
°C
Wind Press
QNH
hPa
Press
MSL
hPa
Rain
since 9 am
mm
Dir
 
Spd
km/h
Gust
km/h
Spd
kts
Gust
kts
21/12:00pm 19.2 16.2 10.5 57 4.7 N 17 26 9 14 1012.8 1012.7 0.2
21/11:30am 17.6 15.1 11.2 66 3.5 N 15 20 8 11 1013.3 - 0.2
21/11:00am 15.7 14.4 11.3 75 2.4 N 9 15 5 8 1013.9 1013.9 0.2
21/10:30am 16.1 13.9 10.8 71 2.8 N 13 24 7 13 1014.2 - 0.0
21/10:00am 16.1 13.7 11.5 74 2.5 NNE 15 22 8 12 1013.8 1013.8 0.0
21/09:30am 15.3 13.7 12.8 85 1.4 N 13 22 7 12 1014.4 - 0.0
21/09:00am 13.8 13.7 13.8 100 0.0 NNE 7 13 4 7 1014.9 1014.9 1.4
21/08:30am 12.9 11.7 12.9 100 0.0 NNE 11 15 6 8 1015.1 - 1.4
21/08:00am 12.7 11.8 12.7 100 0.0 NNE 9 15 5 8 1015.3 1015.3 1.4
21/07:30am 12.5 12.0 12.5 100 0.0 NE 7 13 4 7 1015.4 - 1.4
21/07:00am 12.6 12.1 12.6 100 0.0 NNE 7 11 4 6 1015.8 1015.8 1.4
21/06:30am 12.6 12.1 12.6 100 0.0 N 7 13 4 7 1016.0 - 1.4
21/06:00am 12.5 11.2 12.5 100 0.0 N 11 17 6 9 1016.2 1016.2 1.4
21/05:30am 12.4 11.1 12.4 100 0.0 N 11 17 6 9 1015.8 - 1.4
21/05:00am 12.5 12.0 12.5 100 0.0 NNE 7 9 4 5 1015.9 1015.9 1.4
21/04:30am 12.4 11.4 12.4 100 0.0 N 9 13 5 7 1016.0 - 1.4
21/04:00am 12.4 11.1 12.4 100 0.0 N 11 15 6 8 1016.1 1016.1 1.4
21/03:30am 12.4 11.4 12.4 100 0.0 N 9 13 5 7 1016.0 - 1.4
21/03:00am 12.5 12.0 12.5 100 0.0 NNE 7 9 4 5 1015.8 1015.8 1.4
21/02:30am 13.0 12.6 13.0 100 0.0 N 7 11 4 6 1016.0 - 1.4
21/02:00am 13.4 13.1 13.4 100 0.0 N 7 11 4 6 1016.4 1016.4 1.4
21/01:30am 13.2 13.4 13.2 100 0.0 NNW 4 7 2 4 1016.7 - 1.4
21/01:00am 13.1 12.9 13.1 100 0.0 NNW 6 9 3 5 1016.7 1016.7 1.4
21/12:30am 13.5 13.3 13.5 100 0.0 NNW 7 9 4 5 1016.9 - 1.4
21/12:00am 13.6 13.4 13.6 100 0.0 NNW 7 9 4 5 1016.8 1016.8 1.4
 
Date/Time
EST
Temp
°C
App
Temp
°C
Dew
Point
Rel
Hum
%
Delta-T
°C
Wind Press
QNH
hPa
Press
MSL
hPa
Rain
since 9 am
mm
Dir
 
Spd
km/h
Gust
km/h
Spd
kts
Gust
kts
20/11:30pm 13.6 13.0 13.6 100 0.0 NNW 9 11 5 6 1017.0 - 1.4
20/11:00pm 13.6 13.4 13.6 100 0.0 NNW 7 9 4 5 1017.2 1017.2 1.4
20/10:30pm 13.3 13.0 13.3 100 0.0 NNW 7 11 4 6 1017.4 - 1.4
20/10:00pm 13.7 13.2 13.7 100 0.0 NNW 9 13 5 7 1017.5 1017.5 1.4
20/09:30pm 13.7 13.2 13.7 100 0.0 N 9 13 5 7 1017.4 - 0.6
20/09:00pm 13.4 13.1 13.2 99 0.1 NNW 7 11 4 6 1017.1 1017.1 0.6
20/08:30pm 14.0 13.4 13.5 97 0.3 NNW 9 15 5 8 1017.1 - 0.6
20/08:00pm 15.0 12.5 13.4 90 0.9 NW 19 26 10 14 1017.1 1017.1 0.0
20/07:30pm 16.2 13.5 12.9 81 1.8 NNW 19 26 10 14 1016.8 - 0.0
20/07:00pm 16.7 14.2 12.3 75 2.4 NW 17 24 9 13 1016.4 1016.4 0.0
20/06:30pm 16.6 15.4 12.8 78 2.1 NW 11 19 6 10 1016.1 - 0.0
20/06:00pm 17.0 15.8 12.7 76 2.4 NW 11 19 6 10 1015.9 1015.9 0.0
20/05:30pm 17.5 16.2 12.6 73 2.7 NW 11 17 6 9 1015.6 - 0.0
20/05:00pm 17.8 16.6 12.7 72 2.8 NNW 11 17 6 9 1015.3 1015.3 0.0
20/04:30pm 17.9 15.5 12.8 72 2.9 NW 17 26 9 14 1015.3 - 0.0
20/04:00pm 18.0 17.0 13.3 74 2.7 NNW 11 17 6 9 1015.2 1015.2 0.0
20/03:30pm 16.8 16.8 13.7 82 1.8 WNW 6 11 3 6 1015.4 - 0.0
20/03:00pm 16.9 17.3 13.8 82 1.8 W 4 7 2 4 1015.5 1015.5 0.0
20/02:30pm 17.2 17.6 13.7 80 2.0 W 4 13 2 7 1015.4 - 0.0
20/02:00pm 15.8 16.0 14.3 91 0.9 WSW 6 9 3 5 1015.6 1015.6 0.0
20/01:30pm 14.8 13.0 13.2 90 0.9 W 15 20 8 11 1016.1 - 0.0
20/01:00pm 17.2 14.0 11.2 68 3.2 NNW 19 28 10 15 1015.9 1015.9 0.0
20/12:30pm 17.3 14.5 11.3 68 3.3 NW 17 30 9 16 1016.4 - 0.0
20/12:00pm 16.6 13.1 10.9 69 3.1 NW 20 26 11 14 1016.8 1016.8 0.0
20/11:30am 16.4 11.9 10.0 66 3.4 NW 24 33 13 18 1017.1 - 0.0
20/11:00am 17.3 12.8 10.2 63 3.8 NW 24 37 13 20 1017.2 1017.2 0.0
20/10:30am 15.9 12.2 9.6 66 3.3 NNW 19 30 10 16 1017.3 - 0.0
20/10:00am 14.8 12.3 9.6 71 2.7 NNW 13 22 7 12 1017.4 1017.4 0.0
20/09:30am 13.0 10.8 9.4 79 1.8 N 11 15 6 8 1017.5 - 0.0
20/09:00am 12.2 10.3 9.0 81 1.6 N 9 15 5 8 1017.5 1017.5 1.4
20/08:30am 11.4 9.4 8.8 84 1.3 N 9 11 5 6 1017.3 - 1.4
20/08:00am 11.0 9.6 8.8 86 1.1 N 6 9 3 5 1017.3 1017.3 1.4
20/07:30am 10.4 8.9 8.5 88 0.9 N 6 9 3 5 1017.0 - 1.4
20/07:00am 10.4 8.7 8.5 88 0.9 N 7 9 4 5 1016.9 1016.9 1.4
20/06:30am 10.4 8.4 8.8 90 0.8 N 9 13 5 7 1016.6 - 1.4
20/06:00am 9.9 8.5 9.4 97 0.2 N 7 11 4 6 1016.4 1016.4 1.4
20/05:30am 9.6 8.8 9.5 99 0.0 N 4 6 2 3 1016.4 - 1.4
20/05:00am 9.5 9.0 9.4 99 0.0 NNE 2 4 1 2 1016.3 1016.3 1.4
20/04:30am 9.5 8.3 9.4 99 0.0 NNE 6 9 3 5 1016.3 - 1.4
20/04:00am 9.3 8.8 9.2 99 0.0 ENE 2 7 1 4 1016.3 1016.3 1.4
20/03:30am 9.5 9.0 9.4 99 0.0 W 2 9 1 5 1016.7 - 1.4
20/03:00am 9.4 9.3 9.3 99 0.0 CALM 0 0 0 0 1016.9 1016.9 1.4
20/02:30am 9.4 9.3 9.3 99 0.0 CALM 0 0 0 0 1016.9 - 1.4
20/02:00am 9.4 9.2 9.1 98 0.1 CALM 0 0 0 0 1017.1 1017.1 1.4
20/01:30am 9.5 9.3 9.0 97 0.2 CALM 0 0 0 0 1017.0 - 1.4
20/01:00am 9.7 9.5 9.1 96 0.3 CALM 0 0 0 0 1017.1 1017.1 1.4
20/12:30am 10.2 9.7 9.4 95 0.4 N 2 4 1 2 1017.5 - 1.4
20/12:00am 10.4 9.1 9.9 97 0.3 N 7 11 4 6 1017.5 1017.5 1.4
 
Date/Time
EST
Temp
°C
App
Temp
°C
Dew
Point
Rel
Hum
%
Delta-T
°C
Wind Press
QNH
hPa
Press
MSL
hPa
Rain
since 9 am
mm
Dir
 
Spd
km/h
Gust
km/h
Spd
kts
Gust
kts
19/11:30pm 10.2 9.1 9.9 98 0.2 N 6 9 3 5 1017.8 - 1.4
19/11:00pm 10.2 10.2 9.9 98 0.2 CALM 0 0 0 0 1018.3 1018.3 1.4
19/10:30pm 10.2 10.2 9.7 97 0.3 CALM 0 0 0 0 1018.5 - 1.4
19/10:00pm 10.5 9.8 10.0 97 0.3 N 4 7 2 4 1018.6 1018.6 1.2
19/09:30pm 10.3 9.5 9.8 97 0.3 NNE 4 9 2 5 1018.7 - 1.2
19/09:00pm 10.4 10.4 9.8 96 0.3 CALM 0 0 0 0 1018.8 1018.8 1.2
19/08:30pm 10.5 10.4 9.6 94 0.5 CALM 0 0 0 0 1018.9 - 1.2
19/08:00pm 10.6 10.6 9.7 94 0.5 CALM 0 0 0 0 1019.1 1019.1 1.2
19/07:30pm 10.8 10.8 9.7 93 0.6 CALM 0 0 0 0 1019.2 - 1.2
19/07:00pm 10.9 10.9 9.7 92 0.6 CALM 0 0 0 0 1019.1 1019.1 1.2
19/06:30pm 11.2 11.2 9.8 91 0.7 CALM 0 0 0 0 1019.1 - 1.2
19/06:00pm 11.5 11.5 9.8 89 0.9 CALM 0 0 0 0 1019.1 1019.1 1.2
19/05:30pm 11.8 11.7 9.4 85 1.2 CALM 0 0 0 0 1019.2 - 1.2
19/05:00pm 11.9 10.4 9.3 84 1.3 WSW 7 13 4 7 1019.3 1019.3 1.2
19/04:30pm 12.9 11.8 9.9 82 1.5 SW 6 9 3 5 1019.4 - 1.2
19/04:00pm 12.7 11.6 9.9 83 1.4 SW 6 9 3 5 1019.5 1019.5 1.2
19/03:30pm 12.3 11.2 9.9 85 1.2 SW 6 15 3 8 1019.7 - 1.2
19/03:00pm 13.1 12.5 10.3 83 1.4 W 4 6 2 3 1019.7 1019.7 1.2
19/02:30pm 12.2 10.5 11.1 93 0.6 WNW 11 17 6 9 1019.9 - 1.2
19/02:00pm 13.6 13.6 9.8 78 2.0 CALM 0 17 0 9 1020.1 1020.1 1.0
19/01:30pm 13.0 13.1 10.0 82 1.5 CALM 0 6 0 3 1020.5 - 1.0
19/01:00pm 12.6 12.8 10.7 88 1.0 CALM 0 0 0 0 1021.0 1021.0 1.0
19/12:30pm 12.1 11.3 11.2 94 0.5 SW 6 9 3 5 1021.5 - 1.0
19/12:00pm 12.3 11.5 11.2 93 0.6 S 6 7 3 4 1021.9 1021.9 0.8
19/11:30am 12.9 13.0 10.3 84 1.3 CALM 0 6 0 3 1021.9 - 0.2
19/11:00am 12.6 11.7 11.3 92 0.7 NNW 7 9 4 5 1022.2 1022.2 0.2
19/10:30am 12.2 11.6 12.2 100 0.0 N 7 11 4 6 1022.3 - 0.2
19/10:00am 11.2 10.3 11.2 100 0.0 N 7 9 4 5 1022.6 1022.6 0.2
19/09:30am 10.5 10.3 10.5 100 0.0 NNE 2 9 1 5 1022.7 - 0.2
19/09:00am 10.0 10.1 10.0 100 0.0 CALM 0 0 0 0 1022.9 1022.9 1.2
19/08:30am 9.1 8.2 9.1 100 0.0 W 4 9 2 5 1022.7 - 1.2
19/08:00am 8.8 8.5 8.8 100 0.0 CALM 0 0 0 0 1022.3 1022.3 0.8
19/07:30am 8.5 8.2 8.5 100 0.0 CALM 0 0 0 0 1021.9 - 0.8
19/07:00am 8.3 6.7 8.2 99 0.0 NNW 6 9 3 5 1021.7 1021.7 0.8
19/06:30am 8.4 8.0 8.3 99 0.0 CALM 0 0 0 0 1021.4 - 0.8
19/06:00am 8.8 8.5 8.7 99 0.0 CALM 0 0 0 0 1021.4 1021.4 0.8
19/05:30am 9.1 8.9 9.0 99 0.0 CALM 0 0 0 0 1021.4 - 0.8
19/05:00am 9.4 9.3 9.3 99 0.0 CALM 0 0 0 0 1021.3 1021.3 0.8
19/04:30am 9.5 9.4 9.4 99 0.0 CALM 0 0 0 0 1021.2 - 0.8
19/04:00am 9.8 9.8 9.7 99 0.0 CALM 0 2 0 1 1021.3 1021.3 0.6
19/03:30am 8.6 6.5 8.2 97 0.2 W 9 13 5 7 1021.5 - 0.0
19/03:00am 8.2 7.7 7.8 97 0.2 CALM 0 0 0 0 1021.4 1021.4 0.0
19/02:30am 8.3 7.8 7.7 96 0.3 CALM 0 0 0 0 1021.6 - 0.0
19/02:00am 8.1 7.6 7.7 97 0.2 CALM 0 0 0 0 1021.6 1021.6 0.0
19/01:30am 8.1 7.6 7.7 97 0.2 CALM 0 0 0 0 1021.9 - 0.0
19/01:00am 7.9 7.3 7.5 97 0.2 CALM 0 0 0 0 1022.0 1022.0 0.0
19/12:30am 7.7 7.0 7.1 96 0.3 CALM 0 0 0 0 1022.0 - 0.0
19/12:00am 8.0 7.4 7.4 96 0.3 CALM 0 0 0 0 1022.0 1022.0 0.0
 
Date/Time
EST
Temp
°C
App
Temp
°C
Dew
Point
Rel
Hum
%
Delta-T
°C
Wind Press
QNH
hPa
Press
MSL
hPa
Rain
since 9 am
mm
Dir
 
Spd
km/h
Gust
km/h
Spd
kts
Gust
kts
18/11:30pm 7.3 6.5 6.6 95 0.3 CALM 0 0 0 0 1022.1 - 0.0
18/11:00pm 7.5 6.7 6.6 94 0.4 CALM 0 0 0 0 1022.3 1022.3 0.0
18/10:30pm 7.3 6.5 6.4 94 0.4 CALM 0 0 0 0 1022.4 - 0.0
18/10:00pm 7.5 6.7 6.3 92 0.5 CALM 0 0 0 0 1022.3 1022.3 0.0
18/09:30pm 8.3 7.6 6.8 90 0.7 CALM 0 0 0 0 1022.3 - 0.0
18/09:00pm 9.0 8.3 6.8 86 1.0 CALM 0 0 0 0 1022.2 1022.2 0.0
18/08:30pm 9.4 8.8 7.2 86 1.0 CALM 0 0 0 0 1022.1 - 0.0
18/08:00pm 10.8 10.0 6.7 76 1.9 CALM 0 0 0 0 1021.9 1021.9 0.0
18/07:30pm 11.6 9.8 7.1 74 2.2 SW 6 7 3 4 1021.7 - 0.0
18/07:00pm 11.5 10.1 7.2 75 2.1 WSW 4 6 2 3 1021.6 1021.6 0.0
18/06:30pm 11.8 10.0 7.3 74 2.2 SW 6 7 3 4 1021.5 - 0.0
18/06:00pm 12.4 10.6 7.9 74 2.2 SW 7 9 4 5 1021.4 1021.4 0.0
18/05:30pm 13.2 10.6 7.6 69 2.7 SSW 11 17 6 9 1021.2 - 0.0
18/05:00pm 14.1 11.0 7.2 63 3.4 SW 13 19 7 10 1021.0 1021.0 0.0
18/04:30pm 14.6 10.2 7.6 63 3.5 SSW 20 26 11 14 1020.8 - 0.0
18/04:00pm 14.5 11.8 9.1 70 2.7 SW 13 19 7 10 1020.6 1020.6 0.0
18/03:30pm 14.2 10.0 8.4 68 2.9 SW 20 30 11 16 1020.6 - 0.0
18/03:00pm 15.3 10.5 7.3 59 3.9 SW 22 32 12 17 1020.2 1020.2 0.0
18/02:30pm 16.2 12.2 8.2 59 4.1 SW 19 30 10 16 1020.1 - 0.0
18/02:00pm 14.5 10.5 9.1 70 2.8 SSW 20 30 11 16 1020.1 1020.1 0.0
18/01:37pm 15.1 6.7 8.8 66 3.2 SSW 43 50 23 27 1020.0 - 0.0
18/01:30pm 16.3 11.9 8.8 61 3.9 SSW 22 32 12 17 1019.9 - 0.0
18/01:00pm 17.7 13.2 8.6 55 4.7 SSW 22 32 12 17 1019.7 1019.7 0.0
18/12:30pm 17.6 13.3 7.9 53 4.9 SW 20 30 11 16 1019.9 - 0.0

Other Formats:

Comma delimited format used in spreadsheet applications
http://www.bom.gov.au/fwo/IDV60801/IDV60801.95822.axf

JavaScript Object Notation format (JSON) in row-major order
http://www.bom.gov.au/fwo/IDV60801/IDV60801.95822.json